Time;durP1;ratioP1;P1;durP2;ratioP2;P2;SDS_P1;SDS_P2;PMS_P1;PMS_P2;Temp;Humidity;BMP_temperature;BMP_pressure;BME280_temperature;BME280_humidity;BME280_pressure;Samples;Min_cycle;Max_cycle;Signal;HPM_P1;HPM_P2
2022/03/14 00:01:57;;;;;;;40.97;4.57;;;;;;;20.95;51.07;99892.34;7308907;19;129622;-39
2022/03/14 00:04:23;;;;;;;19.83;2.95;;;;;;;20.93;50.83;99904.72;7314181;19;129340;-38
2022/03/14 00:06:48;;;;;;;35.05;3.75;;;;;;;20.81;51.47;99900.50;7306751;19;154203;-39
2022/03/14 00:09:14;;;;;;;31.23;3.58;;;;;;;20.67;51.46;99899.06;7310714;19;130195;-40
2022/03/14 00:11:39;;;;;;;30.35;3.33;;;;;;;20.45;52.21;99882.63;7312271;19;130596;-38
2022/03/14 00:14:07;;;;;;;35.83;4.00;;;;;;;20.37;52.35;99900.72;7311793;19;130359;-39
2022/03/14 00:16:39;;;;;;;30.02;3.78;;;;;;;20.25;52.72;99899.09;7312648;19;129252;-40
2022/03/14 00:19:06;;;;;;;37.05;4.07;;;;;;;20.15;52.80;99900.78;7309865;19;130509;-39
2022/03/14 00:21:33;;;;;;;;;;;;;;;19.97;54.03;99891.78;7314426;19;130394;-39
2022/03/14 00:23:58;;;;;;;40.53;4.40;;;;;;;19.90;53.84;99903.66;7309398;19;129865;-39
2022/03/14 00:26:25;;;;;;;30.30;3.40;;;;;;;19.79;54.09;99901.06;7309919;19;154707;-38
2022/03/14 00:28:52;;;;;;;36.05;3.72;;;;;;;19.74;54.35;99900.59;7311030;19;130198;-39
2022/03/14 00:31:18;;;;;;;33.97;3.77;;;;;;;19.71;54.84;99896.47;7311305;19;131570;-38
2022/03/14 00:33:44;;;;;;;35.67;4.32;;;;;;;19.78;54.33;99909.84;7311194;19;129526;-38
2022/03/14 00:36:09;;;;;;;41.45;4.57;;;;;;;19.88;54.47;99900.34;7309788;19;154743;-38
2022/03/14 00:38:36;;;;;;;45.80;4.90;;;;;;;19.98;53.90;99904.69;7310191;19;131186;-39
2022/03/14 00:41:06;;;;;;;32.65;3.85;;;;;;;20.13;53.67;99907.91;7311605;19;130403;-38
2022/03/14 00:43:31;;;;;;;44.55;4.40;;;;;;;20.15;53.42;99901.63;7311549;19;129042;-39
2022/03/14 00:45:57;;;;;;;27.45;3.42;;;;;;;20.39;52.38;99920.53;7308901;19;129726;-39
2022/03/14 00:48:22;;;;;;;32.88;4.13;;;;;;;20.53;51.98;99916.78;7310193;19;130136;-39
2022/03/14 00:50:47;;;;;;;33.80;3.58;;;;;;;20.69;52.07;99909.38;7309772;19;130661;-40
2022/03/14 00:53:13;;;;;;;32.97;3.73;;;;;;;20.79;51.13;99910.28;7310198;19;154423;-39
2022/03/14 00:55:38;;;;;;;18.65;2.78;;;;;;;20.91;51.29;99911.84;7309239;19;154878;-38
2022/03/14 00:58:03;;;;;;;26.07;3.07;;;;;;;20.96;50.89;99906.28;7309034;19;157746;-40
2022/03/14 01:00:28;;;;;;;33.88;3.85;;;;;;;21.08;51.05;99919.16;7310088;19;146884;-38
2022/03/14 01:02:54;;;;;;;30.75;3.85;;;;;;;21.09;50.62;99907.72;7310528;19;129126;-39
2022/03/14 01:05:19;;;;;;;49.17;5.22;;;;;;;21.07;50.64;99922.75;7310384;19;140606;-39
2022/03/14 01:07:45;;;;;;;10.00;2.47;;;;;;;21.02;51.01;99924.06;7311299;19;130215;-39
2022/03/14 01:10:10;;;;;;;24.30;3.05;;;;;;;20.90;50.59;99914.59;7308219;19;130728;-39
2022/03/14 01:12:36;;;;;;;28.50;3.88;;;;;;;20.82;51.11;99917.84;7311428;19;129754;-40
2022/03/14 01:15:01;;;;;;;28.88;3.35;;;;;;;20.67;51.69;99911.28;7308645;19;153900;-39
2022/03/14 01:17:27;;;;;;;32.35;3.80;;;;;;;20.44;52.39;99902.69;7309746;19;129781;-39
2022/03/14 01:19:52;;;;;;;19.70;2.70;;;;;;;20.46;52.62;99926.09;7306967;19;130338;-40
2022/03/14 01:22:17;;;;;;;30.55;3.53;;;;;;;20.29;53.04;99918.78;7310800;19;131414;-39
2022/03/14 01:24:43;;;;;;;35.77;3.90;;;;;;;20.14;53.41;99919.97;7308665;19;153896;-39
2022/03/14 01:27:09;;;;;;;29.90;3.73;;;;;;;20.07;53.64;99916.19;7307677;19;130345;-40
2022/03/14 01:29:34;;;;;;;44.28;4.45;;;;;;;19.98;53.42;99922.16;7306711;19;130361;-39
2022/03/14 01:32:05;;;;;;;16.88;2.53;;;;;;;19.89;54.45;99928.94;7311004;19;129783;-40
2022/03/14 01:34:30;;;;;;;31.58;3.63;;;;;;;19.86;53.95;99917.91;7310986;19;130139;-40
2022/03/14 01:36:56;;;;;;;33.88;4.00;;;;;;;19.85;54.23;99917.06;7311155;19;130557;-39
2022/03/14 01:39:21;;;;;;;28.52;3.38;;;;;;;19.93;54.46;99924.31;7309522;19;130346;-38
2022/03/14 01:41:47;;;;;;;36.88;4.18;;;;;;;20.02;54.16;99921.78;7308646;19;155393;-39
2022/03/14 01:44:12;;;;;;;33.50;3.72;;;;;;;20.11;53.54;99926.28;7311198;19;128906;-38
2022/03/14 01:46:37;;;;;;;29.98;3.50;;;;;;;20.24;53.41;99920.94;7307798;19;130460;-40
2022/03/14 01:49:04;;;;;;;36.15;3.95;;;;;;;20.41;52.49;99936.09;7307361;19;130795;-38
2022/03/14 01:51:30;;;;;;;16.08;2.42;;;;;;;20.43;52.45;99911.50;7310262;19;129779;-40
2022/03/14 01:53:55;;;;;;;30.55;3.67;;;;;;;20.68;51.58;99918.16;7311073;19;129651;-39
2022/03/14 01:56:21;;;;;;;30.20;3.53;;;;;;;20.80;51.11;99930.22;7307824;19;159060;-41
2022/03/14 01:58:47;;;;;;;29.93;3.77;;;;;;;20.91;51.52;99932.75;7308820;19;131044;-42
2022/03/14 02:01:13;;;;;;;45.70;4.70;;;;;;;21.03;50.93;99934.41;7309563;19;129300;-40
2022/03/14 02:03:38;;;;;;;21.90;3.13;;;;;;;21.11;50.32;99928.53;7310508;19;129848;-42
2022/03/14 02:06:03;;;;;;;22.60;2.97;;;;;;;21.18;50.61;99920.06;7308036;19;141582;-39
2022/03/14 02:08:28;;;;;;;34.42;3.88;;;;;;;21.26;50.42;99917.59;7307385;19;138959;-42
2022/03/14 02:10:54;;;;;;;25.53;3.10;;;;;;;21.25;49.83;99923.81;7307610;19;154582;-40
2022/03/14 02:13:19;;;;;;;27.07;3.03;;;;;;;21.20;50.13;99917.31;7309028;19;155062;-42
2022/03/14 02:15:45;;;;;;;30.97;3.87;;;;;;;21.12;50.29;99920.53;7308038;19;158795;-41
2022/03/14 02:18:10;;;;;;;28.40;3.50;;;;;;;21.05;50.49;99915.97;7308163;19;130370;-40
2022/03/14 02:20:36;;;;;;;37.47;3.95;;;;;;;20.94;51.37;99924.66;7307241;19;130346;-40
2022/03/14 02:23:01;;;;;;;26.92;3.33;;;;;;;20.77;51.26;99915.59;7308560;19;129179;-42
2022/03/14 02:25:27;;;;;;;53.83;5.43;;;;;;;20.65;51.61;99915.78;7314089;19;130275;-42
2022/03/14 02:27:52;;;;;;;35.08;4.30;;;;;;;20.51;52.40;99919.53;7314956;19;130697;-37
2022/03/14 02:30:18;;;;;;;29.50;3.55;;;;;;;20.44;52.02;99928.81;7313631;19;142206;-41
2022/03/14 02:32:44;;;;;;;36.60;4.25;;;;;;;20.31;53.01;99922.13;7315626;19;130485;-41
2022/03/14 02:35:10;;;;;;;31.10;3.65;;;;;;;20.18;53.10;99924.06;7315716;19;130110;-40
2022/03/14 02:37:36;;;;;;;32.43;3.80;;;;;;;20.03;53.93;99912.19;7315674;19;130054;-41
2022/03/14 02:40:03;;;;;;;38.10;4.10;;;;;;;20.05;54.12;99921.53;7312062;19;129316;-39
2022/03/14 02:42:28;;;;;;;19.50;2.67;;;;;;;20.11;53.76;99925.44;7316698;19;129349;-41
2022/03/14 02:44:53;;;;;;;39.87;4.20;;;;;;;20.17;53.33;99925.81;7313281;19;158351;-37
2022/03/14 02:47:20;;;;;;;25.40;3.10;;;;;;;20.29;53.49;99937.06;7312037;19;159008;-42
2022/03/14 02:49:45;;;;;;;9.82;2.40;;;;;;;20.33;52.56;99910.56;7313730;19;130395;-41
2022/03/14 02:52:10;;;;;;;33.00;3.72;;;;;;;20.51;52.57;99939.63;7314488;19;130626;-39
2022/03/14 02:54:36;;;;;;;24.67;3.22;;;;;;;20.66;51.91;99938.34;7313082;19;159011;-41
2022/03/14 02:57:01;;;;;;;28.67;3.38;;;;;;;20.82;51.35;99959.66;7315030;19;130228;-39
2022/03/14 02:59:27;;;;;;;41.70;4.57;;;;;;;20.95;51.56;99955.09;7312770;19;130066;-39
2022/03/14 03:01:52;;;;;;;26.70;3.45;;;;;;;21.06;51.02;99960.28;7315087;19;129041;-40
2022/03/14 03:04:18;;;;;;;34.33;3.95;;;;;;;21.17;50.72;99965.44;7315850;19;129477;-39
2022/03/14 03:06:45;;;;;;;30.05;3.60;;;;;;;21.26;50.30;99964.69;7312483;19;159113;-39
2022/03/14 03:09:10;;;;;;;23.20;2.70;;;;;;;21.34;49.81;99967.47;7313065;19;129967;-39
2022/03/14 03:11:36;;;;;;;22.52;2.65;;;;;;;21.45;49.37;99964.78;7315576;19;129810;-39
2022/03/14 03:14:03;;;;;;;32.25;3.83;;;;;;;21.45;49.75;99959.53;7315189;19;130297;-42
2022/03/14 03:16:29;;;;;;;42.53;4.15;;;;;;;21.40;49.93;99948.63;7314024;19;129445;-39
2022/03/14 03:18:55;;;;;;;18.73;2.78;;;;;;;21.29;49.68;99953.97;7313511;19;129755;-39
2022/03/14 03:21:21;;;;;;;33.20;3.53;;;;;;;21.11;50.12;99949.44;7313950;19;131371;-39
2022/03/14 03:23:46;;;;;;;23.25;3.03;;;;;;;21.10;50.43;99966.94;7313997;19;129516;-39
2022/03/14 03:26:12;;;;;;;20.80;2.42;;;;;;;21.00;51.08;99960.81;7312173;19;158614;-38
2022/03/14 03:28:37;;;;;;;34.60;3.58;;;;;;;20.85;51.65;99959.41;7312567;19;134586;-41
2022/03/14 03:31:13;;;;;;;27.15;3.13;;;;;;;20.73;51.46;99965.63;7312778;19;129476;-41
2022/03/14 03:33:39;;;;;;;32.75;3.83;;;;;;;20.60;52.31;99970.19;7314737;19;130416;-41
2022/03/14 03:36:07;;;;;;;42.53;4.47;;;;;;;20.49;52.25;99978.88;7308857;19;130772;-40
2022/03/14 03:38:33;;;;;;;27.10;2.80;;;;;;;20.37;52.34;99974.66;7313950;19;129265;-42
2022/03/14 03:40:58;;;;;;;20.73;2.75;;;;;;;20.29;53.30;99986.66;7313156;19;129756;-41
2022/03/14 03:43:23;;;;;;;45.95;4.82;;;;;;;20.21;53.86;99986.44;7310884;19;158475;-40
2022/03/14 03:45:48;;;;;;;15.65;2.47;;;;;;;20.20;53.77;99987.38;7310442;19;157542;-39
2022/03/14 03:48:14;;;;;;;23.83;3.10;;;;;;;20.23;53.06;99992.38;7312361;19;130972;-38
2022/03/14 03:50:40;;;;;;;32.50;3.70;;;;;;;20.30;52.78;99989.16;7314076;19;129080;-40
2022/03/14 03:53:05;;;;;;;32.13;3.20;;;;;;;20.32;53.29;99986.41;7312698;19;130938;-39
2022/03/14 03:55:30;;;;;;;44.53;4.82;;;;;;;20.29;53.05;99994.50;7311131;19;158663;-38
2022/03/14 03:57:55;;;;;;;38.60;4.38;;;;;;;20.24;53.04;99999.25;7310930;19;155501;-39
2022/03/14 04:00:22;;;;;;;24.83;2.92;;;;;;;20.22;53.49;100003.75;7313726;19;153354;-39
2022/03/14 04:02:47;;;;;;;12.77;2.45;;;;;;;20.12;53.89;99997.56;7314253;19;130212;-40
2022/03/14 04:05:16;;;;;;;26.67;3.17;;;;;;;20.07;53.74;100002.31;7311623;19;159566;-43
2022/03/14 04:07:43;;;;;;;12.55;2.25;;;;;;;20.04;53.91;100008.63;7311601;19;129145;-38
2022/03/14 04:10:09;;;;;;;32.45;3.75;;;;;;;19.98;53.97;100009.09;7310575;19;130014;-38
2022/03/14 04:12:40;;;;;;;24.88;2.90;;;;;;;19.94;54.73;100012.06;7312054;19;130381;-39
2022/03/14 04:15:09;;;;;;;32.60;3.53;;;;;;;19.91;54.72;100001.88;7313335;19;130728;-41
2022/03/14 04:17:38;;;;;;;12.82;2.05;;;;;;;19.87;54.77;100016.09;7312634;19;130022;-38
2022/03/14 04:20:09;;;;;;;29.38;3.30;;;;;;;19.81;55.56;100011.34;7310085;19;130352;-39
2022/03/14 04:22:41;;;;;;;21.33;2.53;;;;;;;19.78;55.20;100008.97;7313568;19;131105;-39
2022/03/14 04:25:09;;;;;;;36.60;3.90;;;;;;;19.77;55.93;100004.69;7313157;19;129304;-39
2022/03/14 04:27:35;;;;;;;26.90;3.33;;;;;;;19.76;55.86;99997.81;7309355;19;129330;-38
2022/03/14 04:30:00;;;;;;;37.25;3.85;;;;;;;19.75;55.79;99999.59;7307929;19;154590;-40
2022/03/14 04:32:26;;;;;;;27.95;3.63;;;;;;;19.74;56.00;100000.56;7313080;19;130876;-39
2022/03/14 04:34:52;;;;;;;24.70;3.07;;;;;;;19.60;57.13;99989.53;7312253;19;130923;-39
2022/03/14 04:37:18;;;;;;;22.30;2.93;;;;;;;19.72;56.57;99999.84;7312205;19;128915;-39
2022/03/14 04:39:43;;;;;;;34.38;3.90;;;;;;;19.73;56.99;100008.50;7309717;19;137002;-41
2022/03/14 04:42:09;;;;;;;11.88;2.20;;;;;;;19.76;57.29;100016.09;7312472;19;133841;-39
2022/03/14 04:44:35;;;;;;;44.00;4.15;;;;;;;19.69;56.86;100010.50;7312525;19;130080;-41
2022/03/14 04:47:01;;;;;;;23.20;2.77;;;;;;;19.74;56.90;100015.38;7311197;19;128853;-39
2022/03/14 04:49:27;;;;;;;24.83;2.78;;;;;;;19.72;57.38;100012.88;7310673;19;128910;-40
2022/03/14 04:51:54;;;;;;;24.25;3.00;;;;;;;19.77;57.27;100025.56;7310951;19;129029;-39
2022/03/14 04:54:19;;;;;;;38.25;3.92;;;;;;;19.80;56.72;100026.16;7311324;19;130320;-39
2022/03/14 04:56:45;;;;;;;37.47;3.90;;;;;;;19.83;56.48;100023.34;7310905;19;130373;-39
2022/03/14 04:59:11;;;;;;;44.97;4.53;;;;;;;19.85;56.65;100033.66;7310766;19;129023;-39
2022/03/14 05:01:36;;;;;;;33.33;3.55;;;;;;;19.84;56.83;100037.19;7311855;19;130171;-38
2022/03/14 05:04:01;;;;;;;25.63;2.90;;;;;;;19.81;56.90;100040.03;7311070;19;142047;-41
2022/03/14 05:06:26;;;;;;;29.67;3.43;;;;;;;19.91;56.14;100038.41;7307497;19;154205;-39
2022/03/14 05:08:52;;;;;;;32.83;3.47;;;;;;;19.88;56.77;100046.47;7309195;19;153438;-38
2022/03/14 05:11:17;;;;;;;25.13;2.72;;;;;;;19.92;56.14;100043.50;7311742;19;140465;-39
2022/03/14 05:13:43;;;;;;;45.20;4.50;;;;;;;19.92;55.97;100037.44;7311021;19;131061;-39
2022/03/14 05:16:08;;;;;;;24.45;2.75;;;;;;;19.93;56.34;100041.72;7311050;19;154861;-39
2022/03/14 05:18:34;;;;;;;31.83;3.53;;;;;;;19.96;55.56;100054.53;7309460;19;130245;-40
2022/03/14 05:21:00;;;;;;;13.13;2.40;;;;;;;19.85;55.60;100034.47;7311727;19;130165;-40
2022/03/14 05:23:28;;;;;;;37.60;4.20;;;;;;;19.96;55.43;100044.94;7309382;19;129521;-40
2022/03/14 05:25:53;;;;;;;42.38;4.68;;;;;;;19.98;55.71;100052.63;7309053;19;129201;-42
2022/03/14 05:28:18;;;;;;;28.33;3.28;;;;;;;19.97;55.32;100053.56;7308342;19;129326;-39
2022/03/14 05:30:43;;;;;;;28.37;3.23;;;;;;;19.91;56.02;100051.44;7309437;19;159167;-40
2022/03/14 05:33:09;;;;;;;22.97;2.57;;;;;;;19.88;56.30;100069.94;7309306;19;158438;-40
2022/03/14 05:35:34;;;;;;;19.73;2.63;;;;;;;19.94;55.70;100059.03;7309009;19;129885;-39
2022/03/14 05:37:59;;;;;;;35.67;3.83;;;;;;;19.80;56.00;100046.22;7307261;19;153988;-42
2022/03/14 05:40:25;;;;;;;26.27;3.10;;;;;;;19.91;55.71;100069.69;7308300;19;151551;-39
2022/03/14 05:42:51;;;;;;;36.67;3.85;;;;;;;19.81;55.62;100047.88;7309360;19;130423;-39
2022/03/14 05:45:18;;;;;;;32.72;3.47;;;;;;;19.90;55.83;100066.25;7308008;19;129187;-39
2022/03/14 05:47:46;;;;;;;50.10;4.72;;;;;;;19.89;56.20;100072.44;7306122;19;129578;-40
2022/03/14 05:50:11;;;;;;;31.90;3.75;;;;;;;19.81;55.76;100056.53;7306445;19;130155;-40
2022/03/14 05:52:37;;;;;;;24.95;2.80;;;;;;;19.88;56.11;100069.94;7308252;19;129666;-40
2022/03/14 05:55:03;;;;;;;44.10;4.22;;;;;;;19.84;56.85;100078.94;7305253;19;149277;-39
2022/03/14 05:57:28;;;;;;;23.05;2.78;;;;;;;19.81;56.06;100074.81;7305772;19;129179;-39
2022/03/14 05:59:53;;;;;;;30.87;3.23;;;;;;;19.80;56.14;100086.16;7307514;19;158389;-44
2022/03/14 06:02:23;;;;;;;30.00;3.33;;;;;;;19.80;57.18;100087.97;7315875;19;158439;-38
2022/03/14 06:04:49;;;;;;;26.70;2.90;;;;;;;19.77;57.90;100082.94;7315440;19;129461;-39
2022/03/14 06:07:14;;;;;;;31.98;3.80;;;;;;;19.65;56.51;100068.25;7313610;19;130081;-39
2022/03/14 06:09:39;;;;;;;31.17;3.28;;;;;;;19.73;57.54;100076.31;7310604;19;130730;-41
2022/03/14 06:12:05;;;;;;;27.70;3.35;;;;;;;19.77;56.73;100088.16;7314033;19;159168;-39
2022/03/14 06:14:31;;;;;;;28.27;3.33;;;;;;;19.75;56.60;100087.47;7316641;19;130255;-40
2022/03/14 06:16:56;;;;;;;27.33;3.10;;;;;;;19.75;56.72;100087.47;7314845;19;129026;-41
2022/03/14 06:19:21;;;;;;;81.37;6.83;;;;;;;19.75;55.71;100083.06;7311406;19;158467;-39
2022/03/14 06:21:47;;;;;;;24.98;3.38;;;;;;;19.72;56.28;100074.69;7317031;19;130776;-39
2022/03/14 06:24:13;;;;;;;41.83;4.60;;;;;;;19.66;57.29;100075.13;7315746;19;129017;-39
2022/03/14 06:26:38;;;;;;;24.23;2.85;;;;;;;19.73;56.81;100089.38;7311806;19;154223;-40
2022/03/14 06:29:03;;;;;;;49.43;5.03;;;;;;;19.76;56.62;100102.19;7310839;19;158321;-39
2022/03/14 06:31:31;;;;;;;32.15;3.63;;;;;;;19.77;56.87;100090.78;7314154;19;160166;-39
2022/03/14 06:33:57;;;;;;;23.98;3.35;;;;;;;19.74;56.46;100104.06;7315486;19;129556;-40
2022/03/14 06:36:22;;;;;;;33.65;3.60;;;;;;;19.77;56.17;100109.03;7313649;19;131108;-41
2022/03/14 06:38:48;;;;;;;26.95;2.72;;;;;;;19.82;55.33;100101.69;7314889;19;130228;-38
2022/03/14 06:41:14;;;;;;;36.80;3.97;;;;;;;19.79;56.17;100108.00;7315959;19;130985;-40
2022/03/14 06:43:39;;;;;;;27.97;3.43;;;;;;;19.82;56.18;100117.34;7315715;19;129470;-40
2022/03/14 06:46:05;;;;;;;18.17;2.55;;;;;;;19.80;55.67;100114.06;7316200;19;130031;-42
2022/03/14 06:48:31;;;;;;;30.80;3.13;;;;;;;19.78;56.83;100115.94;7315778;19;130318;-40
2022/03/14 06:50:56;;;;;;;31.77;3.65;;;;;;;19.81;55.99;100124.38;7315843;19;130720;-41
2022/03/14 06:53:21;;;;;;;31.95;3.45;;;;;;;19.80;55.33;100120.09;7314742;19;155585;-40
2022/03/14 06:55:47;;;;;;;39.50;4.18;;;;;;;19.74;56.07;100117.09;7313270;19;130006;-41
2022/03/14 06:58:12;;;;;;;28.42;3.33;;;;;;;19.78;56.02;100121.16;7315998;19;130201;-41
2022/03/14 07:00:38;;;;;;;23.75;2.90;;;;;;;19.78;56.27;100128.97;7315650;19;129677;-41
2022/03/14 07:03:03;;;;;;;21.52;2.85;;;;;;;19.78;56.54;100136.81;7316207;19;130535;-40
2022/03/14 07:05:29;;;;;;;34.20;3.78;;;;;;;19.76;56.83;100128.25;7314909;19;129738;-40
2022/03/14 07:07:54;;;;;;;30.40;3.40;;;;;;;19.75;56.33;100130.03;7314896;19;130416;-41
2022/03/14 07:10:20;;;;;;;19.90;2.67;;;;;;;19.73;56.94;100137.16;7315044;19;130868;-41
2022/03/14 07:12:46;;;;;;;27.42;3.05;;;;;;;19.74;56.88;100140.59;7315834;19;131995;-41
2022/03/14 07:15:14;;;;;;;20.90;3.10;;;;;;;19.76;56.30;100141.31;7316696;19;131293;-43
2022/03/14 07:17:39;;;;;;;36.30;3.88;;;;;;;19.81;55.81;100147.00;7297307;19;130453;-38
2022/03/14 07:20:05;;;;;;;29.17;3.30;;;;;;;19.78;55.59;100142.03;7295576;19;131769;-41
2022/03/14 07:22:37;;;;;;;28.48;3.20;;;;;;;19.65;57.24;100144.69;7315516;19;128866;-42
2022/03/14 07:25:06;;;;;;;32.17;3.60;;;;;;;19.64;57.01;100150.03;7313845;19;130688;-41
2022/03/14 07:27:33;;;;;;;29.73;3.55;;;;;;;19.64;56.56;100156.09;7312811;19;130217;-42
2022/03/14 07:29:58;;;;;;;;;;;;;;;19.67;56.55;100158.47;7306436;19;130054;-41
2022/03/14 07:32:24;;;;;;;41.13;4.63;;;;;;;19.64;54.68;100166.53;7309686;19;130356;-38
2022/03/14 07:34:49;;;;;;;38.53;4.55;;;;;;;19.53;55.93;100147.41;7311476;19;129893;-39
2022/03/14 07:37:14;;;;;;;52.10;4.90;;;;;;;19.63;56.31;100171.84;7311211;19;158242;-39
2022/03/14 07:39:40;;;;;;;32.45;3.83;;;;;;;19.55;55.97;100159.41;7310210;19;158303;-39
2022/03/14 07:42:07;;;;;;;24.77;3.72;;;;;;;19.64;56.79;100176.13;7312708;19;129001;-39
2022/03/14 07:44:32;;;;;;;40.55;4.72;;;;;;;19.62;56.24;100178.03;7311128;19;129168;-41
2022/03/14 07:46:57;;;;;;;32.92;4.10;;;;;;;19.62;56.07;100183.25;7312014;19;140872;-39
2022/03/14 07:49:23;;;;;;;59.37;6.03;;;;;;;19.63;55.65;100184.91;7309251;19;157535;-38
2022/03/14 07:51:48;;;;;;;36.00;4.27;;;;;;;19.60;56.19;100188.56;7313211;19;142048;-39
2022/03/14 07:54:13;;;;;;;31.53;4.07;;;;;;;19.62;56.85;100188.47;7314310;19;130046;-39
2022/03/14 07:56:38;;;;;;;30.47;3.50;;;;;;;19.60;56.43;100198.16;7310957;19;158356;-39
2022/03/14 07:59:03;;;;;;;75.70;7.30;;;;;;;19.59;56.58;100199.94;7308699;19;158937;-39
2022/03/14 08:01:29;;;;;;;29.30;3.70;;;;;;;19.58;56.04;100208.72;7311582;19;153828;-40
2022/03/14 08:03:54;;;;;;;41.03;4.67;;;;;;;19.50;56.27;100208.44;7310789;19;154011;-38
2022/03/14 08:06:22;;;;;;;36.00;4.23;;;;;;;19.61;55.75;100228.50;7310490;19;158604;-38
2022/03/14 08:08:48;;;;;;;39.03;4.55;;;;;;;19.60;56.16;100237.28;7311022;19;130728;-39
2022/03/14 08:11:13;;;;;;;33.38;4.68;;;;;;;19.57;56.37;100232.31;7310759;19;130387;-43
2022/03/14 08:13:39;;;;;;;31.98;4.13;;;;;;;19.56;56.12;100228.84;7309714;19;154401;-38
2022/03/14 08:16:04;;;;;;;33.03;4.07;;;;;;;19.57;56.47;100237.53;7311520;19;130602;-38
2022/03/14 08:18:30;;;;;;;23.17;3.38;;;;;;;19.56;55.72;100235.84;7311490;19;130345;-39
2022/03/14 08:20:57;;;;;;;32.38;3.90;;;;;;;19.56;56.55;100234.06;7308585;19;130477;-39
2022/03/14 08:23:23;;;;;;;39.28;4.40;;;;;;;19.57;56.22;100253.16;7309014;19;129218;-39
2022/03/14 08:25:49;;;;;;;33.90;4.33;;;;;;;19.56;56.18;100247.09;7312596;19;130201;-39
2022/03/14 08:28:14;;;;;;;43.50;4.73;;;;;;;19.56;55.87;100241.06;7306065;19;158438;-38
2022/03/14 08:30:39;;;;;;;37.77;4.13;;;;;;;19.56;56.53;100241.06;7309117;19;154457;-39
2022/03/14 08:33:06;;;;;;;52.30;5.55;;;;;;;19.46;54.51;100222.63;7310758;19;129575;-39
2022/03/14 08:35:31;;;;;;;35.42;4.57;;;;;;;19.56;56.10;100235.84;7310238;19;129983;-39
2022/03/14 08:37:57;;;;;;;50.40;5.32;;;;;;;19.57;56.27;100242.72;7307969;19;130964;-38
2022/03/14 08:40:25;;;;;;;40.42;4.65;;;;;;;19.56;56.13;100256.69;7311131;19;128993;-42
2022/03/14 08:42:52;;;;;;;37.80;4.63;;;;;;;19.45;56.52;100247.88;7309006;19;129630;-40
2022/03/14 08:45:18;;;;;;;54.90;6.13;;;;;;;19.43;56.30;100247.16;7309681;19;130077;-39
2022/03/14 08:47:44;;;;;;;42.33;4.75;;;;;;;19.55;56.05;100255.03;7309477;19;131505;-40
2022/03/14 08:50:10;;;;;;;36.22;4.38;;;;;;;19.63;54.70;100260.53;7307568;19;129965;-41
2022/03/14 08:52:36;;;;;;;26.75;3.53;;;;;;;19.57;55.66;100253.97;7311423;19;129037;-38
2022/03/14 08:55:03;;;;;;;33.80;3.97;;;;;;;19.59;54.72;100261.69;7310268;19;129405;-39
2022/03/14 08:57:28;;;;;;;32.05;3.92;;;;;;;19.53;55.37;100241.28;7309921;19;131351;-39
2022/03/14 08:59:54;;;;;;;31.98;4.15;;;;;;;19.58;56.06;100252.22;7308215;19;130656;-39
2022/03/14 09:02:19;;;;;;;42.75;4.68;;;;;;;19.63;54.84;100257.94;7308234;19;130111;-40
2022/03/14 09:04:44;;;;;;;29.95;3.88;;;;;;;19.61;54.64;100252.00;7308699;19;130180;-40
2022/03/14 09:07:10;;;;;;;14.77;2.57;;;;;;;19.57;55.48;100268.81;7309399;19;139355;-39
2022/03/14 09:09:36;;;;;;;28.88;3.55;;;;;;;19.58;56.17;100254.81;7308768;19;128886;-39
2022/03/14 09:12:02;;;;;;;56.08;5.43;;;;;;;19.56;56.53;100256.69;7308443;19;129058;-40
2022/03/14 09:14:27;;;;;;;40.10;4.47;;;;;;;19.59;55.45;100261.69;7309271;19;130220;-41
2022/03/14 09:16:53;;;;;;;33.67;4.13;;;;;;;19.56;55.55;100261.91;7307991;19;158759;-39
2022/03/14 09:19:18;;;;;;;28.05;3.72;;;;;;;19.57;55.45;100269.63;7307289;19;129149;-39
2022/03/14 09:21:43;;;;;;;35.00;4.25;;;;;;;19.56;56.82;100254.94;7308795;19;130034;-38
2022/03/14 09:24:09;;;;;;;28.67;4.07;;;;;;;19.61;55.40;100257.19;7309958;19;159406;-39
2022/03/14 09:26:36;;;;;;;26.98;3.03;;;;;;;19.59;56.40;100261.69;7300983;19;129800;-40
2022/03/14 09:29:02;;;;;;;28.77;3.28;;;;;;;19.57;56.29;100267.03;7309679;19;130579;-38
2022/03/14 09:31:29;;;;;;;15.40;2.83;;;;;;;19.60;55.82;100265.97;7311392;19;129300;-39
2022/03/14 09:33:55;;;;;;;24.63;3.22;;;;;;;19.60;55.38;100276.41;7308520;19;131141;-40
2022/03/14 09:36:20;;;;;;;45.15;5.10;;;;;;;19.57;56.18;100279.25;7309874;19;130937;-39
2022/03/14 09:38:45;;;;;;;45.00;5.18;;;;;;;19.60;55.94;100285.09;7308032;19;129977;-39
2022/03/14 09:41:15;;;;;;;34.13;4.07;;;;;;;19.58;56.03;100286.13;7307871;19;144920;-38
2022/03/14 09:43:44;;;;;;;16.77;2.85;;;;;;;19.56;56.15;100293.22;7309304;19;129185;-39
2022/03/14 09:46:11;;;;;;;43.00;4.63;;;;;;;19.57;56.68;100294.91;7308394;19;129679;-38
2022/03/14 09:48:40;;;;;;;34.22;4.10;;;;;;;19.58;55.92;100286.13;7307656;19;129457;-41
2022/03/14 09:51:06;;;;;;;31.98;4.22;;;;;;;19.56;56.07;100298.44;7308640;19;129479;-39
2022/03/14 09:53:34;;;;;;;37.22;4.53;;;;;;;19.56;56.26;100298.44;7308875;19;130242;-38
2022/03/14 09:56:00;;;;;;;35.08;4.03;;;;;;;19.56;56.00;100298.44;7308315;19;130368;-39
2022/03/14 09:58:26;;;;;;;39.97;4.67;;;;;;;19.55;56.51;100291.56;7308518;19;129901;-39
2022/03/14 10:00:51;;;;;;;32.93;3.77;;;;;;;19.51;56.39;100303.13;7307825;19;129258;-39
2022/03/14 10:03:18;;;;;;;31.98;4.00;;;;;;;19.53;55.68;100309.94;7311354;19;130288;-39
2022/03/14 10:05:44;;;;;;;41.15;4.50;;;;;;;19.53;56.08;100309.09;7307639;19;130260;-39
2022/03/14 10:08:10;;;;;;;37.10;4.03;;;;;;;19.57;55.55;100310.53;7307135;19;130699;-41
2022/03/14 10:10:39;;;;;;;31.77;3.80;;;;;;;19.53;56.65;100309.09;7307690;19;129948;-38
2022/03/14 10:13:06;;;;;;;31.10;3.78;;;;;;;19.55;56.16;100313.25;7309327;19;129722;-39
2022/03/14 10:15:35;;;;;;;89.57;8.15;;;;;;;19.54;55.93;100306.38;7305696;19;130473;-39
2022/03/14 10:18:10;;;;;;;24.88;3.00;;;;;;;19.55;56.72;100320.25;7306667;19;128964;-40
2022/03/14 10:20:35;;;;;;;22.40;2.72;;;;;;;19.55;55.57;100312.44;7308271;19;130418;-38
2022/03/14 10:23:01;;;;;;;19.48;3.10;;;;;;;19.54;56.17;100329.00;7308404;19;128948;-39
2022/03/14 10:25:28;;;;;;;102.05;10.25;;;;;;;19.53;57.12;100319.50;7305956;19;130329;-39
2022/03/14 10:27:57;;;;;;;40.63;4.40;;;;;;;19.50;56.99;100320.59;7304553;19;129493;-40
2022/03/14 10:30:29;;;;;;;37.47;4.30;;;;;;;19.51;56.83;100321.41;7306575;19;129238;-39
2022/03/14 10:33:10;;;;;;;30.85;3.90;;;;;;;19.48;58.11;100318.06;7307871;19;130248;-40
2022/03/14 10:35:38;;;;;;;26.52;3.60;;;;;;;19.40;56.59;100320.38;7306113;19;130685;-39
2022/03/14 10:38:06;;;;;;;62.13;7.20;;;;;;;19.40;53.12;100324.78;7308873;19;130101;-40
2022/03/14 10:40:34;;;;;;;30.15;5.32;;;;;;;19.42;51.98;100336.75;7307745;19;129543;-38
2022/03/14 10:43:00;;;;;;;44.90;7.00;;;;;;;19.38;53.31;100344.91;7308358;19;130234;-38
2022/03/14 10:45:26;;;;;;;104.37;11.80;;;;;;;19.37;51.87;100335.41;7307002;19;129082;-38
2022/03/14 10:47:54;;;;;;;38.53;6.70;;;;;;;19.32;51.30;100333.13;7315188;19;129057;-39
2022/03/14 10:50:35;;;;;;;37.90;5.95;;;;;;;19.27;53.98;100314.31;7312281;19;131045;-39
2022/03/14 10:53:09;;;;;;;37.50;6.18;;;;;;;19.33;53.85;100326.97;7315711;19;130211;-39
2022/03/14 10:55:43;;;;;;;37.70;5.90;;;;;;;19.36;54.66;100323.31;7313480;19;130313;-39
2022/03/14 10:58:09;;;;;;;34.63;5.60;;;;;;;19.31;53.61;100315.81;7315787;19;129808;-38
2022/03/14 11:00:49;;;;;;;24.38;4.13;;;;;;;19.29;55.43;100317.69;7315025;19;129328;-38
2022/03/14 11:03:34;;;;;;;44.50;5.93;;;;;;;19.38;55.70;100340.53;7314519;19;130264;-40
2022/03/14 11:06:06;;;;;;;27.30;4.93;;;;;;;19.40;55.71;100350.84;7313568;19;130638;-39
2022/03/14 11:08:38;;;;;;;26.73;4.63;;;;;;;19.41;54.69;100345.53;7311487;19;155547;-39